sensor_id;sensor_type;location;lat;lon;timestamp;pressure;altitude;pressure_sealevel;temperature;humidity
64675;BME280;51090;51.512;11.332;2023-03-04T00:01:42;99960.03;;;4.59;95.35
64675;BME280;51090;51.512;11.332;2023-03-04T00:04:08;99956.44;;;4.50;96.58
64675;BME280;51090;51.512;11.332;2023-03-04T00:06:34;99949.66;;;4.48;95.30
64675;BME280;51090;51.512;11.332;2023-03-04T00:08:59;99950.69;;;4.35;98.02
64675;BME280;51090;51.512;11.332;2023-03-04T00:11:25;99946.81;;;4.30;97.29
64675;BME280;51090;51.512;11.332;2023-03-04T00:13:51;99944.56;;;4.25;99.67
64675;BME280;51090;51.512;11.332;2023-03-04T00:16:17;99942.50;;;4.29;97.59
64675;BME280;51090;51.512;11.332;2023-03-04T00:18:43;99947.75;;;4.29;98.23
64675;BME280;51090;51.512;11.332;2023-03-04T00:21:08;99936.69;;;4.25;98.66
64675;BME280;51090;51.512;11.332;2023-03-04T00:23:34;99932.53;;;4.23;99.14
64675;BME280;51090;51.512;11.332;2023-03-04T00:26:00;99939.75;;;4.30;99.64
64675;BME280;51090;51.512;11.332;2023-03-04T00:28:26;99937.69;;;4.34;98.60
64675;BME280;51090;51.512;11.332;2023-03-04T00:30:52;99931.19;;;4.28;99.18
64675;BME280;51090;51.512;11.332;2023-03-04T00:33:18;99934.94;;;4.35;99.94
64675;BME280;51090;51.512;11.332;2023-03-04T00:35:43;99927.09;;;4.45;99.88
64675;BME280;51090;51.512;11.332;2023-03-04T00:38:09;99930.84;;;4.43;99.32
64675;BME280;51090;51.512;11.332;2023-03-04T00:40:35;99932.47;;;4.44;99.16
64675;BME280;51090;51.512;11.332;2023-03-04T00:43:01;99926.00;;;4.48;98.53
64675;BME280;51090;51.512;11.332;2023-03-04T00:45:27;99925.19;;;4.47;99.58
64675;BME280;51090;51.512;11.332;2023-03-04T00:47:53;99914.97;;;4.54;99.41
64675;BME280;51090;51.512;11.332;2023-03-04T00:50:19;99919.78;;;4.49;98.12
64675;BME280;51090;51.512;11.332;2023-03-04T00:52:44;99917.69;;;4.43;97.27
64675;BME280;51090;51.512;11.332;2023-03-04T00:55:10;99903.03;;;4.40;97.18
64675;BME280;51090;51.512;11.332;2023-03-04T00:57:36;99901.25;;;4.41;97.20
64675;BME280;51090;51.512;11.332;2023-03-04T01:00:02;99900.97;;;4.44;97.76
64675;BME280;51090;51.512;11.332;2023-03-04T01:02:29;99901.13;;;4.42;98.97
64675;BME280;51090;51.512;11.332;2023-03-04T01:04:55;99894.63;;;4.46;98.78
64675;BME280;51090;51.512;11.332;2023-03-04T01:07:21;99894.34;;;4.49;98.26
64675;BME280;51090;51.512;11.332;2023-03-04T01:09:46;99893.38;;;4.41;98.14
64675;BME280;51090;51.512;11.332;2023-03-04T01:12:12;99889.09;;;4.40;98.06
64675;BME280;51090;51.512;11.332;2023-03-04T01:14:38;99877.19;;;4.35;98.56
64675;BME280;51090;51.512;11.332;2023-03-04T01:17:03;99878.28;;;4.33;98.12
64675;BME280;51090;51.512;11.332;2023-03-04T01:19:29;99879.09;;;4.33;97.99
64675;BME280;51090;51.512;11.332;2023-03-04T01:21:55;99875.94;;;4.30;98.53
64675;BME280;51090;51.512;11.332;2023-03-04T01:24:20;99866.38;;;4.29;98.56
64675;BME280;51090;51.512;11.332;2023-03-04T01:26:46;99863.91;;;4.27;99.00
64675;BME280;51090;51.512;11.332;2023-03-04T01:29:12;99861.28;;;4.27;98.59
64675;BME280;51090;51.512;11.332;2023-03-04T01:31:37;99853.91;;;4.21;97.98
64675;BME280;51090;51.512;11.332;2023-03-04T01:34:03;99852.94;;;4.12;96.97
64675;BME280;51090;51.512;11.332;2023-03-04T01:36:29;99856.75;;;3.99;96.92
64675;BME280;51090;51.512;11.332;2023-03-04T01:38:55;99847.69;;;3.82;97.07
64675;BME280;51090;51.512;11.332;2023-03-04T01:41:24;99847.41;;;3.75;96.70
64675;BME280;51090;51.512;11.332;2023-03-04T01:43:51;99843.78;;;3.45;96.85
64675;BME280;51090;51.512;11.332;2023-03-04T01:46:16;99849.13;;;3.34;97.78
64675;BME280;51090;51.512;11.332;2023-03-04T01:48:43;99846.88;;;3.30;98.30
64675;BME280;51090;51.512;11.332;2023-03-04T01:51:17;99847.69;;;3.30;98.05
64675;BME280;51090;51.512;11.332;2023-03-04T01:53:47;99836.31;;;3.20;97.28
64675;BME280;51090;51.512;11.332;2023-03-04T01:56:35;99839.91;;;3.19;97.49
64675;BME280;51090;51.512;11.332;2023-03-04T01:59:21;99834.44;;;3.11;96.96
64675;BME280;51090;51.512;11.332;2023-03-04T02:01:57;99823.31;;;2.97;96.41
64675;BME280;51090;51.512;11.332;2023-03-04T02:04:29;99820.41;;;2.91;96.11
64675;BME280;51090;51.512;11.332;2023-03-04T02:06:57;99820.56;;;2.78;96.57
64675;BME280;51090;51.512;11.332;2023-03-04T02:09:23;99817.53;;;2.61;97.18
64675;BME280;51090;51.512;11.332;2023-03-04T02:11:50;99815.03;;;2.60;97.27
64675;BME280;51090;51.512;11.332;2023-03-04T02:14:17;99799.28;;;2.39;99.01
64675;BME280;51090;51.512;11.332;2023-03-04T02:16:43;99826.00;;;2.54;99.00
64675;BME280;51090;51.512;11.332;2023-03-04T02:19:30;99798.69;;;2.47;98.43
64675;BME280;51090;51.512;11.332;2023-03-04T02:21:57;99813.16;;;2.51;98.51
64675;BME280;51090;51.512;11.332;2023-03-04T02:24:40;99818.25;;;2.64;99.25
64675;BME280;51090;51.512;11.332;2023-03-04T02:27:07;99814.84;;;2.52;100.00
64675;BME280;51090;51.512;11.332;2023-03-04T02:29:33;99812.44;;;2.49;100.00
64675;BME280;51090;51.512;11.332;2023-03-04T02:31:59;99816.94;;;2.58;99.81
64675;BME280;51090;51.512;11.332;2023-03-04T02:34:33;99823.31;;;2.76;99.04
64675;BME280;51090;51.512;11.332;2023-03-04T02:37:01;99817.63;;;2.71;99.11
64675;BME280;51090;51.512;11.332;2023-03-04T02:39:32;99818.16;;;2.86;98.11
64675;BME280;51090;51.512;11.332;2023-03-04T02:41:59;99807.06;;;2.82;98.26
64675;BME280;51090;51.512;11.332;2023-03-04T02:44:31;99809.78;;;2.92;98.20
64675;BME280;51090;51.512;11.332;2023-03-04T02:46:58;99800.56;;;2.98;98.46
64675;BME280;51090;51.512;11.332;2023-03-04T02:49:26;99808.38;;;3.09;97.97
64675;BME280;51090;51.512;11.332;2023-03-04T02:52:00;99800.16;;;3.14;97.93
64675;BME280;51090;51.512;11.332;2023-03-04T02:54:26;99790.44;;;3.04;97.84
64675;BME280;51090;51.512;11.332;2023-03-04T02:56:54;99790.63;;;3.13;96.84
64675;BME280;51090;51.512;11.332;2023-03-04T02:59:21;99790.88;;;3.10;96.55
64675;BME280;51090;51.512;11.332;2023-03-04T03:01:47;99779.94;;;3.04;96.29
64675;BME280;51090;51.512;11.332;2023-03-04T03:04:13;99788.78;;;3.03;95.86
64675;BME280;51090;51.512;11.332;2023-03-04T03:06:39;99774.97;;;3.01;95.40
64675;BME280;51090;51.512;11.332;2023-03-04T03:09:06;99739.16;;;2.70;94.63
64675;BME280;51090;51.512;11.332;2023-03-04T03:11:32;99773.19;;;2.81;94.31
64675;BME280;51090;51.512;11.332;2023-03-04T03:13:58;99772.53;;;2.68;94.83
64675;BME280;51090;51.512;11.332;2023-03-04T03:16:25;99774.94;;;2.59;96.17
64675;BME280;51090;51.512;11.332;2023-03-04T03:18:50;99760.25;;;2.36;96.12
64675;BME280;51090;51.512;11.332;2023-03-04T03:21:17;99779.28;;;2.38;95.09
64675;BME280;51090;51.512;11.332;2023-03-04T03:23:42;99771.59;;;2.25;95.03
64675;BME280;51090;51.512;11.332;2023-03-04T03:26:09;99780.53;;;2.23;96.07
64675;BME280;51090;51.512;11.332;2023-03-04T03:28:35;99774.72;;;2.19;96.27
64675;BME280;51090;51.512;11.332;2023-03-04T03:31:01;99767.47;;;2.11;96.31
64675;BME280;51090;51.512;11.332;2023-03-04T03:33:27;99763.19;;;2.10;96.27
64675;BME280;51090;51.512;11.332;2023-03-04T03:35:53;99762.63;;;2.07;96.58
64675;BME280;51090;51.512;11.332;2023-03-04T03:38:18;99769.13;;;2.12;97.61
64675;BME280;51090;51.512;11.332;2023-03-04T03:40:44;99771.97;;;2.21;97.50
64675;BME280;51090;51.512;11.332;2023-03-04T03:43:10;99765.19;;;2.29;97.10
64675;BME280;51090;51.512;11.332;2023-03-04T03:45:36;99747.22;;;2.25;97.24
64675;BME280;51090;51.512;11.332;2023-03-04T03:48:02;99763.22;;;2.43;96.95
64675;BME280;51090;51.512;11.332;2023-03-04T03:50:28;99769.00;;;2.57;96.51
64675;BME280;51090;51.512;11.332;2023-03-04T03:52:54;99770.03;;;2.66;97.46
64675;BME280;51090;51.512;11.332;2023-03-04T03:55:21;99770.56;;;2.81;96.35
64675;BME280;51090;51.512;11.332;2023-03-04T03:57:47;99778.16;;;2.84;96.07
64675;BME280;51090;51.512;11.332;2023-03-04T04:00:13;99774.19;;;2.90;96.27
64675;BME280;51090;51.512;11.332;2023-03-04T04:02:40;99775.72;;;2.92;96.49
64675;BME280;51090;51.512;11.332;2023-03-04T04:05:08;99766.13;;;3.02;96.03
64675;BME280;51090;51.512;11.332;2023-03-04T04:07:34;99770.44;;;3.03;96.54
64675;BME280;51090;51.512;11.332;2023-03-04T04:10:00;99671.94;;;2.49;96.43
64675;BME280;51090;51.512;11.332;2023-03-04T04:12:26;99760.97;;;3.12;95.77
64675;BME280;51090;51.512;11.332;2023-03-04T04:14:52;99769.97;;;3.19;95.22
64675;BME280;51090;51.512;11.332;2023-03-04T04:17:18;99764.34;;;3.24;94.74
64675;BME280;51090;51.512;11.332;2023-03-04T04:19:44;99761.03;;;3.22;95.39
64675;BME280;51090;51.512;11.332;2023-03-04T04:22:16;99767.72;;;3.36;94.91
64675;BME280;51090;51.512;11.332;2023-03-04T04:24:42;99735.31;;;3.16;95.97
64675;BME280;51090;51.512;11.332;2023-03-04T04:27:08;99769.69;;;3.43;96.24
64675;BME280;51090;51.512;11.332;2023-03-04T04:29:34;99770.25;;;3.47;96.67
64675;BME280;51090;51.512;11.332;2023-03-04T04:32:00;99765.47;;;3.52;97.60
64675;BME280;51090;51.512;11.332;2023-03-04T04:34:26;99769.78;;;3.63;98.00
64675;BME280;51090;51.512;11.332;2023-03-04T04:36:52;99762.59;;;3.65;98.89
64675;BME280;51090;51.512;11.332;2023-03-04T04:39:18;99745.19;;;3.64;99.16
64675;BME280;51090;51.512;11.332;2023-03-04T04:41:45;99757.13;;;3.78;99.25
64675;BME280;51090;51.512;11.332;2023-03-04T04:44:12;99739.94;;;3.64;99.25
64675;BME280;51090;51.512;11.332;2023-03-04T04:46:39;99759.09;;;3.85;99.21
64675;BME280;51090;51.512;11.332;2023-03-04T04:49:05;99758.81;;;3.88;99.67
64675;BME280;51090;51.512;11.332;2023-03-04T04:51:33;99756.63;;;3.93;99.67
64675;BME280;51090;51.512;11.332;2023-03-04T04:54:00;99760.75;;;3.96;99.82
64675;BME280;51090;51.512;11.332;2023-03-04T04:56:27;99763.25;;;3.98;99.53
64675;BME280;51090;51.512;11.332;2023-03-04T04:58:56;99756.78;;;4.02;99.72
64675;BME280;51090;51.512;11.332;2023-03-04T05:01:22;99757.88;;;3.99;99.82
64675;BME280;51090;51.512;11.332;2023-03-04T05:03:49;99754.16;;;4.02;99.97
64675;BME280;51090;51.512;11.332;2023-03-04T05:06:18;99753.03;;;4.04;100.00
64675;BME280;51090;51.512;11.332;2023-03-04T05:08:43;99749.59;;;4.04;100.00
64675;BME280;51090;51.512;11.332;2023-03-04T05:11:09;99744.91;;;4.07;100.00
64675;BME280;51090;51.512;11.332;2023-03-04T05:13:35;99749.75;;;4.12;100.00
64675;BME280;51090;51.512;11.332;2023-03-04T05:16:02;99745.19;;;4.14;100.00
64675;BME280;51090;51.512;11.332;2023-03-04T05:18:28;99747.53;;;4.17;100.00
64675;BME280;51090;51.512;11.332;2023-03-04T05:20:56;99747.00;;;4.23;100.00
64675;BME280;51090;51.512;11.332;2023-03-04T05:23:24;99740.63;;;4.26;100.00
64675;BME280;51090;51.512;11.332;2023-03-04T05:25:50;99740.63;;;4.26;100.00
64675;BME280;51090;51.512;11.332;2023-03-04T05:28:16;99738.72;;;4.28;100.00
64675;BME280;51090;51.512;11.332;2023-03-04T05:30:43;99741.88;;;4.31;100.00
64675;BME280;51090;51.512;11.332;2023-03-04T05:33:12;99738.31;;;4.32;100.00
64675;BME280;51090;51.512;11.332;2023-03-04T05:35:39;99739.00;;;4.34;100.00
64675;BME280;51090;51.512;11.332;2023-03-04T05:38:08;99741.34;;;4.38;100.00
64675;BME280;51090;51.512;11.332;2023-03-04T05:40:35;99731.66;;;4.38;100.00
64675;BME280;51090;51.512;11.332;2023-03-04T05:43:01;99740.09;;;4.42;100.00
64675;BME280;51090;51.512;11.332;2023-03-04T05:45:27;99740.09;;;4.42;100.00
64675;BME280;51090;51.512;11.332;2023-03-04T05:47:54;99734.59;;;4.45;100.00
64675;BME280;51090;51.512;11.332;2023-03-04T05:50:22;99731.53;;;4.49;100.00
64675;BME280;51090;51.512;11.332;2023-03-04T05:52:48;99736.78;;;4.49;100.00
64675;BME280;51090;51.512;11.332;2023-03-04T05:55:15;99740.91;;;4.52;100.00
64675;BME280;51090;51.512;11.332;2023-03-04T05:57:42;99741.91;;;4.51;100.00
64675;BME280;51090;51.512;11.332;2023-03-04T06:00:09;99739.81;;;4.54;100.00
64675;BME280;51090;51.512;11.332;2023-03-04T06:02:36;99741.50;;;4.55;100.00
64675;BME280;51090;51.512;11.332;2023-03-04T06:05:06;99744.66;;;4.59;100.00
64675;BME280;51090;51.512;11.332;2023-03-04T06:07:32;99747.28;;;4.59;100.00
64675;BME280;51090;51.512;11.332;2023-03-04T06:10:01;99752.81;;;4.66;100.00
64675;BME280;51090;51.512;11.332;2023-03-04T06:12:26;99744.66;;;4.59;100.00
64675;BME280;51090;51.512;11.332;2023-03-04T06:14:53;99737.59;;;4.59;100.00
64675;BME280;51090;51.512;11.332;2023-03-04T06:17:19;99743.97;;;4.67;100.00
64675;BME280;51090;51.512;11.332;2023-03-04T06:19:45;99745.47;;;4.59;100.00
64675;BME280;51090;51.512;11.332;2023-03-04T06:22:11;99743.72;;;4.60;100.00
64675;BME280;51090;51.512;11.332;2023-03-04T06:24:37;99740.38;;;4.58;100.00
64675;BME280;51090;51.512;11.332;2023-03-04T06:27:03;99745.22;;;4.63;100.00
64675;BME280;51090;51.512;11.332;2023-03-04T06:29:28;99746.16;;;4.71;100.00
64675;BME280;51090;51.512;11.332;2023-03-04T06:31:54;99728.06;;;4.68;100.00
64675;BME280;51090;51.512;11.332;2023-03-04T06:34:20;99742.28;;;4.85;100.00
64675;BME280;51090;51.512;11.332;2023-03-04T06:36:46;99738.94;;;4.93;100.00
64675;BME280;51090;51.512;11.332;2023-03-04T06:39:12;99739.22;;;4.99;100.00
64675;BME280;51090;51.512;11.332;2023-03-04T06:41:37;99747.38;;;5.06;100.00
64675;BME280;51090;51.512;11.332;2023-03-04T06:44:04;99748.59;;;5.12;100.00
64675;BME280;51090;51.512;11.332;2023-03-04T06:46:32;99749.97;;;5.16;99.89
64675;BME280;51090;51.512;11.332;2023-03-04T06:48:57;99745.41;;;5.08;99.92
64675;BME280;51090;51.512;11.332;2023-03-04T06:51:23;99752.06;;;5.12;100.00
64675;BME280;51090;51.512;11.332;2023-03-04T06:53:49;99742.25;;;5.05;100.00
64675;BME280;51090;51.512;11.332;2023-03-04T06:56:14;99759.38;;;5.18;100.00
64675;BME280;51090;51.512;11.332;2023-03-04T06:58:42;99742.47;;;5.21;100.00
64675;BME280;51090;51.512;11.332;2023-03-04T07:01:20;99756.53;;;5.39;100.00
64675;BME280;51090;51.512;11.332;2023-03-04T07:03:47;99735.81;;;5.27;100.00
64675;BME280;51090;51.512;11.332;2023-03-04T07:06:15;99751.41;;;5.48;100.00
64675;BME280;51090;51.512;11.332;2023-03-04T07:08:41;99737.69;;;5.44;100.00
64675;BME280;51090;51.512;11.332;2023-03-04T07:11:08;99748.00;;;5.65;100.00
64675;BME280;51090;51.512;11.332;2023-03-04T07:13:34;99736.63;;;5.64;100.00
64675;BME280;51090;51.512;11.332;2023-03-04T07:16:07;99750.09;;;5.89;100.00
64675;BME280;51090;51.512;11.332;2023-03-04T07:18:33;99753.69;;;5.88;100.00
64675;BME280;51090;51.512;11.332;2023-03-04T07:20:59;99748.16;;;5.91;100.00
64675;BME280;51090;51.512;11.332;2023-03-04T07:23:25;99765.16;;;6.06;100.00
64675;BME280;51090;51.512;11.332;2023-03-04T07:25:51;99758.00;;;6.17;100.00
64675;BME280;51090;51.512;11.332;2023-03-04T07:28:17;99750.31;;;6.23;100.00
64675;BME280;51090;51.512;11.332;2023-03-04T07:30:43;99745.69;;;6.35;100.00
64675;BME280;51090;51.512;11.332;2023-03-04T07:33:09;99748.25;;;6.45;100.00
64675;BME280;51090;51.512;11.332;2023-03-04T07:35:35;99757.88;;;6.54;99.89
64675;BME280;51090;51.512;11.332;2023-03-04T07:38:01;99751.97;;;6.60;99.39
64675;BME280;51090;51.512;11.332;2023-03-04T07:40:27;99745.00;;;6.69;98.92
64675;BME280;51090;51.512;11.332;2023-03-04T07:42:54;99748.88;;;6.83;98.99
64675;BME280;51090;51.512;11.332;2023-03-04T07:45:21;99755.88;;;6.92;98.74
64675;BME280;51090;51.512;11.332;2023-03-04T07:47:47;99746.03;;;6.94;96.82
64675;BME280;51090;51.512;11.332;2023-03-04T07:50:13;99745.38;;;7.00;96.83
64675;BME280;51090;51.512;11.332;2023-03-04T07:52:42;99747.56;;;7.05;95.80
64675;BME280;51090;51.512;11.332;2023-03-04T07:55:09;99736.38;;;7.11;96.09
64675;BME280;51090;51.512;11.332;2023-03-04T07:57:40;99743.69;;;7.17;94.88
64675;BME280;51090;51.512;11.332;2023-03-04T08:00:07;99747.13;;;7.09;95.36
64675;BME280;51090;51.512;11.332;2023-03-04T08:02:33;99728.44;;;7.03;95.13
64675;BME280;51090;51.512;11.332;2023-03-04T08:04:59;99738.22;;;7.10;96.19
64675;BME280;51090;51.512;11.332;2023-03-04T08:07:24;99740.38;;;7.15;94.99
64675;BME280;51090;51.512;11.332;2023-03-04T08:09:50;99744.06;;;7.22;95.35
64675;BME280;51090;51.512;11.332;2023-03-04T08:12:16;99736.00;;;7.32;96.16
64675;BME280;51090;51.512;11.332;2023-03-04T08:14:41;99737.41;;;7.44;95.98
64675;BME280;51090;51.512;11.332;2023-03-04T08:17:07;99738.44;;;7.51;94.68
64675;BME280;51090;51.512;11.332;2023-03-04T08:19:34;99744.28;;;7.63;94.56
64675;BME280;51090;51.512;11.332;2023-03-04T08:22:01;99734.06;;;7.68;93.06
64675;BME280;51090;51.512;11.332;2023-03-04T08:24:27;99743.16;;;7.74;93.43
64675;BME280;51090;51.512;11.332;2023-03-04T08:26:53;99727.16;;;7.75;93.03
64675;BME280;51090;51.512;11.332;2023-03-04T08:29:22;99728.84;;;7.84;92.48
64675;BME280;51090;51.512;11.332;2023-03-04T08:31:50;99736.44;;;7.88;92.25
64675;BME280;51090;51.512;11.332;2023-03-04T08:34:17;99719.78;;;7.95;92.32
64675;BME280;51090;51.512;11.332;2023-03-04T08:36:43;99726.56;;;7.90;91.96
64675;BME280;51090;51.512;11.332;2023-03-04T08:39:12;99727.59;;;8.05;92.47
64675;BME280;51090;51.512;11.332;2023-03-04T08:41:38;99735.50;;;8.05;91.30
64675;BME280;51090;51.512;11.332;2023-03-04T08:44:04;99719.47;;;8.06;90.96
64675;BME280;51090;51.512;11.332;2023-03-04T08:46:30;99732.34;;;8.01;90.29
64675;BME280;51090;51.512;11.332;2023-03-04T08:48:56;99726.91;;;7.95;89.38
64675;BME280;51090;51.512;11.332;2023-03-04T08:51:22;99723.78;;;7.99;91.77
64675;BME280;51090;51.512;11.332;2023-03-04T08:53:48;99717.69;;;8.07;91.45
64675;BME280;51090;51.512;11.332;2023-03-04T08:56:14;99710.41;;;8.09;91.50
64675;BME280;51090;51.512;11.332;2023-03-04T08:58:40;99710.94;;;8.13;91.91
64675;BME280;51090;51.512;11.332;2023-03-04T09:01:10;99710.47;;;8.34;91.93
64675;BME280;51090;51.512;11.332;2023-03-04T09:03:37;99695.63;;;8.49;92.17
64675;BME280;51090;51.512;11.332;2023-03-04T09:06:03;99703.06;;;8.62;90.82
64675;BME280;51090;51.512;11.332;2023-03-04T09:08:30;99703.88;;;8.70;89.93
64675;BME280;51090;51.512;11.332;2023-03-04T09:10:56;99689.38;;;8.66;87.19
64675;BME280;51090;51.512;11.332;2023-03-04T09:13:22;99697.28;;;8.75;87.19
64675;BME280;51090;51.512;11.332;2023-03-04T09:15:51;99701.06;;;8.80;88.81
64675;BME280;51090;51.512;11.332;2023-03-04T09:18:18;99698.41;;;8.88;87.76
64675;BME280;51090;51.512;11.332;2023-03-04T09:20:44;99694.94;;;8.88;87.53
64675;BME280;51090;51.512;11.332;2023-03-04T09:23:11;99691.97;;;8.91;86.75
64675;BME280;51090;51.512;11.332;2023-03-04T09:25:38;99696.41;;;8.99;87.58
64675;BME280;51090;51.512;11.332;2023-03-04T09:28:05;99699.38;;;9.04;87.42
64675;BME280;51090;51.512;11.332;2023-03-04T09:30:31;99696.22;;;9.08;87.74
64675;BME280;51090;51.512;11.332;2023-03-04T09:32:57;99708.66;;;9.00;86.47
64675;BME280;51090;51.512;11.332;2023-03-04T09:35:23;99695.28;;;8.93;86.62
64675;BME280;51090;51.512;11.332;2023-03-04T09:37:49;99696.72;;;9.04;87.50
64675;BME280;51090;51.512;11.332;2023-03-04T09:40:27;99685.34;;;9.03;85.37
64675;BME280;51090;51.512;11.332;2023-03-04T09:43:01;99691.78;;;9.17;86.60
64675;BME280;51090;51.512;11.332;2023-03-04T09:45:40;99691.41;;;9.28;85.28
64675;BME280;51090;51.512;11.332;2023-03-04T09:48:10;99690.03;;;9.32;87.25
64675;BME280;51090;51.512;11.332;2023-03-04T09:51:10;99691.00;;;9.40;83.50
64675;BME280;51090;51.512;11.332;2023-03-04T09:56:23;99690.03;;;9.41;87.33
64675;BME280;51090;51.512;11.332;2023-03-04T09:59:15;99696.03;;;9.66;84.13
64675;BME280;51090;51.512;11.332;2023-03-04T10:01:52;99679.44;;;9.80;85.04
64675;BME280;51090;51.512;11.332;2023-03-04T10:04:39;99674.03;;;9.96;82.92
64675;BME280;51090;51.512;11.332;2023-03-04T10:07:14;99681.75;;;10.06;82.62
64675;BME280;51090;51.512;11.332;2023-03-04T10:09:55;99683.06;;;10.10;81.74
64675;BME280;51090;51.512;11.332;2023-03-04T10:12:24;99672.16;;;10.05;83.34
64675;BME280;51090;51.512;11.332;2023-03-04T10:15:22;99684.03;;;10.17;79.46
64675;BME280;51090;51.512;11.332;2023-03-04T10:17:55;99676.09;;;10.09;80.29
64675;BME280;51090;51.512;11.332;2023-03-04T10:20:30;99670.94;;;10.16;82.19
64675;BME280;51090;51.512;11.332;2023-03-04T10:23:04;99682.34;;;10.16;80.60
64675;BME280;51090;51.512;11.332;2023-03-04T10:25:34;99683.13;;;10.25;82.12
64675;BME280;51090;51.512;11.332;2023-03-04T10:28:17;99680.53;;;10.40;78.35
64675;BME280;51090;51.512;11.332;2023-03-04T10:31:27;99672.28;;;10.58;79.24
64675;BME280;51090;51.512;11.332;2023-03-04T10:33:55;99677.94;;;10.55;78.03
64675;BME280;51090;51.512;11.332;2023-03-04T10:39:06;99678.69;;;10.49;77.27
64675;BME280;51090;51.512;11.332;2023-03-04T10:41:33;99672.59;;;10.40;77.49
64675;BME280;51090;51.512;11.332;2023-03-04T10:46:25;99671.28;;;10.13;67.34
64675;BME280;51090;51.512;11.332;2023-03-04T10:48:53;99699.66;;;9.73;69.78
64675;BME280;51090;51.512;11.332;2023-03-04T10:51:24;99665.09;;;9.66;71.22
64675;BME280;51090;51.512;11.332;2023-03-04T10:54:00;99677.34;;;9.67;68.48
64675;BME280;51090;51.512;11.332;2023-03-04T10:56:42;99662.53;;;9.81;69.73
64675;BME280;51090;51.512;11.332;2023-03-04T10:59:56;99641.09;;;9.68;67.24
64675;BME280;51090;51.512;11.332;2023-03-04T11:02:34;99661.09;;;9.70;68.49
64675;BME280;51090;51.512;11.332;2023-03-04T11:05:21;99672.81;;;9.76;67.56
64675;BME280;51090;51.512;11.332;2023-03-04T11:07:54;99651.56;;;9.92;69.43
64675;BME280;51090;51.512;11.332;2023-03-04T11:10:23;99649.13;;;10.06;69.13
64675;BME280;51090;51.512;11.332;2023-03-04T11:15:29;99673.03;;;10.29;66.43
64675;BME280;51090;51.512;11.332;2023-03-04T11:18:10;99649.28;;;10.12;63.98
64675;BME280;51090;51.512;11.332;2023-03-04T11:20:44;99660.19;;;9.86;65.35
64675;BME280;51090;51.512;11.332;2023-03-04T11:26:37;99640.44;;;10.20;66.52
64675;BME280;51090;51.512;11.332;2023-03-04T11:29:19;99648.13;;;10.38;62.63
64675;BME280;51090;51.512;11.332;2023-03-04T11:31:52;99633.97;;;10.45;64.65
64675;BME280;51090;51.512;11.332;2023-03-04T11:34:58;99661.50;;;10.59;59.85
64675;BME280;51090;51.512;11.332;2023-03-04T11:37:34;99653.66;;;10.28;63.17
64675;BME280;51090;51.512;11.332;2023-03-04T11:40:22;99628.16;;;10.19;62.14
64675;BME280;51090;51.512;11.332;2023-03-04T11:43:18;99634.34;;;10.11;63.14
64675;BME280;51090;51.512;11.332;2023-03-04T11:52:23;99652.50;;;9.99;61.62
64675;BME280;51090;51.512;11.332;2023-03-04T11:55:10;99646.53;;;9.74;65.32
64675;BME280;51090;51.512;11.332;2023-03-04T12:07:55;99644.56;;;9.99;61.63
64675;BME280;51090;51.512;11.332;2023-03-04T12:13:46;99615.13;;;10.40;59.45
64675;BME280;51090;51.512;11.332;2023-03-04T12:17:03;99638.97;;;10.17;61.67
64675;BME280;51090;51.512;11.332;2023-03-04T12:20:15;99579.50;;;9.97;62.22
64675;BME280;51090;51.512;11.332;2023-03-04T12:22:46;99612.75;;;9.99;64.12
64675;BME280;51090;51.512;11.332;2023-03-04T12:28:45;99623.22;;;10.16;64.73
64675;BME280;51090;51.512;11.332;2023-03-04T12:40:31;99604.09;;;10.06;68.43
64675;BME280;51090;51.512;11.332;2023-03-04T12:43:25;99604.25;;;10.04;63.84
64675;BME280;51090;51.512;11.332;2023-03-04T12:48:36;99603.88;;;10.38;64.30
64675;BME280;51090;51.512;11.332;2023-03-04T12:51:34;99605.41;;;10.33;60.71
64675;BME280;51090;51.512;11.332;2023-03-04T12:54:07;99603.66;;;10.17;61.50
64675;BME280;51090;51.512;11.332;2023-03-04T12:56:56;99585.47;;;10.37;61.80
64675;BME280;51090;51.512;11.332;2023-03-04T12:59:25;99570.25;;;10.54;63.93
64675;BME280;51090;51.512;11.332;2023-03-04T13:05:07;99587.50;;;10.50;62.49
64675;BME280;51090;51.512;11.332;2023-03-04T13:10:38;99611.53;;;10.10;61.57
64675;BME280;51090;51.512;11.332;2023-03-04T13:13:04;99599.44;;;10.08;59.12
64675;BME280;51090;51.512;11.332;2023-03-04T13:15:36;99601.38;;;10.14;57.26
64675;BME280;51090;51.512;11.332;2023-03-04T13:18:36;99600.63;;;9.82;55.60
64675;BME280;51090;51.512;11.332;2023-03-04T13:23:39;99596.00;;;9.76;56.54
64675;BME280;51090;51.512;11.332;2023-03-04T13:26:30;99596.25;;;9.66;56.46
64675;BME280;51090;51.512;11.332;2023-03-04T13:29:31;99579.72;;;9.87;54.74
64675;BME280;51090;51.512;11.332;2023-03-04T13:32:03;99572.25;;;9.91;57.51
64675;BME280;51090;51.512;11.332;2023-03-04T13:34:50;99560.84;;;9.90;56.55
64675;BME280;51090;51.512;11.332;2023-03-04T13:37:33;99567.06;;;9.74;57.43
64675;BME280;51090;51.512;11.332;2023-03-04T13:42:48;99575.41;;;9.86;57.15
64675;BME280;51090;51.512;11.332;2023-03-04T13:45:36;99562.75;;;9.73;57.93
64675;BME280;51090;51.512;11.332;2023-03-04T13:48:20;99557.81;;;9.70;58.14
64675;BME280;51090;51.512;11.332;2023-03-04T13:50:48;99569.22;;;9.71;58.63
64675;BME280;51090;51.512;11.332;2023-03-04T13:53:41;99562.13;;;9.94;57.38
64675;BME280;51090;51.512;11.332;2023-03-04T13:58:35;99566.94;;;9.91;56.99
64675;BME280;51090;51.512;11.332;2023-03-04T14:01:02;99550.66;;;10.17;58.62
64675;BME280;51090;51.512;11.332;2023-03-04T14:03:30;99551.84;;;10.14;55.03
64675;BME280;51090;51.512;11.332;2023-03-04T14:06:31;99537.03;;;10.28;55.76
64675;BME280;51090;51.512;11.332;2023-03-04T14:08:57;99553.50;;;10.38;57.29
64675;BME280;51090;51.512;11.332;2023-03-04T14:11:38;99540.31;;;10.30;55.46
64675;BME280;51090;51.512;11.332;2023-03-04T14:14:15;99544.38;;;10.18;54.50
64675;BME280;51090;51.512;11.332;2023-03-04T14:19:29;99529.50;;;9.71;54.74